Time;durP1;ratioP1;P1;durP2;ratioP2;P2;SDS_P1;SDS_P2;PMS_P1;PMS_P2;Temp;Humidity;BMP_temperature;BMP_pressure;BME280_temperature;BME280_humidity;BME280_pressure;Samples;Min_cycle;Max_cycle;Signal;HPM_P1;HPM_P2
2021/07/29 00:00:33;;;;;;;6.13;5.73;;;20.10;99.90;;;;;;5096333;28;20410;-72
2021/07/29 00:02:59;;;;;;;5.80;5.27;;;20.00;99.90;;;;;;5095844;28;20438;-76
2021/07/29 00:05:26;;;;;;;6.10;5.60;;;20.00;99.90;;;;;;5096070;28;20418;-72
2021/07/29 00:07:53;;;;;;;6.40;5.90;;;20.00;99.90;;;;;;5095661;28;20779;-72
2021/07/29 00:10:19;;;;;;;5.43;5.10;;;20.00;99.90;;;;;;5095486;28;20456;-72
2021/07/29 00:12:45;;;;;;;5.53;5.13;;;20.00;99.90;;;;;;5095506;28;20513;-72
2021/07/29 00:15:15;;;;;;;5.93;5.53;;;19.90;99.90;;;;;;5095295;28;20525;-72
2021/07/29 00:20:18;;;;;;;5.67;5.27;;;19.90;99.90;;;;;;5095231;28;20418;-72
2021/07/29 00:22:45;;;;;;;4.80;4.50;;;19.90;99.90;;;;;;5095958;28;20406;-71
2021/07/29 00:25:14;;;;;;;5.50;5.10;;;19.90;99.90;;;;;;5094702;28;20469;-72
2021/07/29 00:27:44;;;;;;;4.80;4.50;;;19.90;99.90;;;;;;5095666;28;20467;-72
2021/07/29 00:30:12;;;;;;;6.20;5.60;;;19.80;99.90;;;;;;5094821;28;20449;-71
2021/07/29 00:32:38;;;;;;;5.43;5.07;;;19.80;99.90;;;;;;5095644;28;20422;-72
2021/07/29 00:35:07;;;;;;;7.10;6.50;;;19.80;99.90;;;;;;5094873;28;20410;-73
2021/07/29 00:37:37;;;;;;;5.50;5.10;;;19.80;99.90;;;;;;5097421;28;20966;-73
2021/07/29 00:40:04;;;;;;;5.33;4.90;;;19.80;99.90;;;;;;5100461;28;20429;-77
2021/07/29 00:42:30;;;;;;;5.50;5.10;;;19.80;99.90;;;;;;5104841;28;20497;-72
2021/07/29 00:44:55;;;;;;;5.90;5.40;;;19.70;99.90;;;;;;5101493;28;20914;-73
2021/07/29 00:47:22;;;;;;;5.80;5.40;;;19.80;99.90;;;;;;5103346;28;20187;-72
2021/07/29 00:49:49;;;;;;;5.67;5.17;;;19.70;99.90;;;;;;5100117;28;20204;-72
2021/07/29 00:52:16;;;;;;;5.50;5.10;;;19.70;99.90;;;;;;5103004;28;20429;-72
2021/07/29 00:54:42;;;;;;;5.80;5.30;;;19.60;99.90;;;;;;5104852;28;20422;-72
2021/07/29 00:57:09;;;;;;;5.70;5.20;;;19.60;99.90;;;;;;5102194;28;20412;-72
2021/07/29 00:59:36;;;;;;;5.93;5.53;;;19.60;99.90;;;;;;5104112;28;20566;-73
2021/07/29 01:02:03;;;;;;;6.00;5.60;;;19.60;99.90;;;;;;5104259;28;20423;-77
2021/07/29 01:04:29;;;;;;;5.67;5.20;;;19.70;99.90;;;;;;5099651;28;20757;-72
2021/07/29 01:06:55;;;;;;;5.67;5.17;;;19.60;99.90;;;;;;5099325;28;20436;-73
2021/07/29 01:09:21;;;;;;;6.30;5.77;;;19.60;99.90;;;;;;5103237;28;20454;-72
2021/07/29 01:11:47;;;;;;;5.57;5.17;;;19.60;99.90;;;;;;5103448;28;20417;-73
2021/07/29 01:14:14;;;;;;;5.87;5.50;;;19.60;99.90;;;;;;5101239;28;20414;-72
2021/07/29 01:16:41;;;;;;;6.00;5.20;;;19.60;99.90;;;;;;5109858;28;20179;-72
2021/07/29 01:19:09;;;;;;;6.40;5.90;;;19.60;99.90;;;;;;5101962;28;20434;-72
2021/07/29 01:21:35;;;;;;;6.73;5.67;;;19.70;99.90;;;;;;5127466;27;20406;-71
2021/07/29 01:24:01;;;;;;;5.93;5.53;;;19.70;99.90;;;;;;5092975;28;20410;-76
2021/07/29 01:26:28;;;;;;;5.63;5.13;;;19.70;99.90;;;;;;5094178;28;20403;-72
2021/07/29 01:28:55;;;;;;;6.37;5.97;;;19.70;99.90;;;;;;5094520;28;20446;-71
2021/07/29 01:31:20;;;;;;;6.13;5.53;;;19.80;99.90;;;;;;5093427;28;21088;-71
2021/07/29 01:33:47;;;;;;;5.43;5.03;;;19.80;99.90;;;;;;5093929;28;20422;-72
2021/07/29 01:36:13;;;;;;;6.47;5.87;;;19.80;99.90;;;;;;5093724;28;20660;-72
2021/07/29 01:38:39;;;;;;;6.33;5.77;;;19.70;99.90;;;;;;5094374;28;20406;-72
2021/07/29 01:41:05;;;;;;;5.40;5.00;;;19.60;99.90;;;;;;5093591;28;20418;-72
2021/07/29 01:43:32;;;;;;;6.00;5.50;;;19.60;99.90;;;;;;5094029;28;20417;-72
2021/07/29 01:45:59;;;;;;;5.30;5.00;;;19.50;99.90;;;;;;5093585;28;20619;-71
2021/07/29 01:48:26;;;;;;;6.20;5.70;;;19.50;99.90;;;;;;5093370;28;20493;-71
2021/07/29 01:50:52;;;;;;;5.40;5.10;;;19.40;99.90;;;;;;5094122;28;20437;-71
2021/07/29 01:53:18;;;;;;;5.63;5.23;;;19.40;99.90;;;;;;5092119;28;20459;-71
2021/07/29 01:55:44;;;;;;;6.50;4.90;;;19.30;99.90;;;;;;5094231;28;20501;-71
2021/07/29 01:58:11;;;;;;;4.43;4.23;;;19.20;99.90;;;;;;5092051;28;20646;-72
2021/07/29 02:00:38;;;;;;;4.50;4.20;;;19.10;99.90;;;;;;5093614;28;20536;-72
2021/07/29 02:03:04;;;;;;;4.97;4.67;;;19.10;99.90;;;;;;5093187;28;20426;-76
2021/07/29 02:05:30;;;;;;;4.87;4.57;;;19.10;99.90;;;;;;5093758;28;20413;-72
2021/07/29 02:07:57;;;;;;;5.10;4.70;;;19.10;99.90;;;;;;5093768;28;20464;-71
2021/07/29 02:10:23;;;;;;;5.50;5.00;;;19.00;99.90;;;;;;5092946;28;20492;-71
2021/07/29 02:12:50;;;;;;;5.37;4.90;;;18.80;99.90;;;;;;5093489;28;20454;-71
2021/07/29 02:15:15;;;;;;;4.90;4.50;;;18.70;99.90;;;;;;5093120;28;20183;-71
2021/07/29 02:17:41;;;;;;;5.50;4.50;;;18.60;99.90;;;;;;5093501;28;20418;-71
2021/07/29 02:20:08;;;;;;;4.80;4.50;;;18.50;99.90;;;;;;5091777;28;20546;-72
2021/07/29 02:22:34;;;;;;;4.90;4.50;;;18.50;99.90;;;;;;5093403;28;20176;-71
2021/07/29 02:25:00;;;;;;;5.17;4.77;;;18.50;99.90;;;;;;5093501;28;20901;-71
2021/07/29 02:27:25;;;;;;;4.40;4.10;;;18.50;99.90;;;;;;5091084;28;20426;-71
2021/07/29 02:29:52;;;;;;;4.90;4.50;;;18.50;99.90;;;;;;5093234;28;20626;-71
2021/07/29 02:32:18;;;;;;;4.80;4.30;;;18.50;99.90;;;;;;5092299;28;20415;-71
2021/07/29 02:34:44;;;;;;;4.13;3.93;;;18.60;99.90;;;;;;5093075;28;20436;-71
2021/07/29 02:37:10;;;;;;;4.33;4.10;;;18.60;99.90;;;;;;5092623;28;20425;-72
2021/07/29 02:39:37;;;;;;;4.50;4.20;;;18.70;99.90;;;;;;5093018;28;20425;-72
2021/07/29 02:42:04;;;;;;;4.40;4.10;;;18.70;99.90;;;;;;5092062;28;20172;-76
2021/07/29 02:44:30;;;;;;;4.20;4.00;;;18.70;99.90;;;;;;5092930;28;20795;-71
2021/07/29 02:46:55;;;;;;;4.10;3.80;;;18.70;99.90;;;;;;5092800;28;20433;-71
2021/07/29 02:49:21;;;;;;;4.47;4.20;;;18.70;99.90;;;;;;5091974;28;20210;-71
2021/07/29 02:51:47;;;;;;;4.63;4.20;;;18.70;99.90;;;;;;5092904;28;20176;-71
2021/07/29 02:54:12;;;;;;;5.40;4.90;;;18.80;99.90;;;;;;5091781;28;20264;-72
2021/07/29 02:56:38;;;;;;;4.47;4.07;;;18.80;99.90;;;;;;5092662;28;20528;-71
2021/07/29 02:59:04;;;;;;;4.70;4.40;;;18.80;99.90;;;;;;5092338;28;20188;-75
2021/07/29 03:01:29;;;;;;;4.47;4.17;;;18.70;99.90;;;;;;5091831;28;20176;-72
2021/07/29 03:03:55;;;;;;;4.60;4.20;;;18.70;99.90;;;;;;5092691;28;20251;-71
2021/07/29 03:06:21;;;;;;;5.03;4.73;;;18.70;99.90;;;;;;5091654;28;20255;-71
2021/07/29 03:08:46;;;;;;;4.17;3.97;;;18.80;99.90;;;;;;5092392;28;20210;-70
2021/07/29 03:11:12;;;;;;;5.20;4.80;;;18.70;99.90;;;;;;5091623;28;20219;-70
2021/07/29 03:13:38;;;;;;;4.43;4.20;;;18.70;99.90;;;;;;5091944;28;20180;-71
2021/07/29 03:16:04;;;;;;;5.07;4.70;;;18.70;99.90;;;;;;5092813;28;20632;-70
2021/07/29 03:18:29;;;;;;;4.27;3.97;;;18.70;99.90;;;;;;5091879;28;20259;-70
2021/07/29 03:20:55;;;;;;;4.70;4.40;;;18.70;99.90;;;;;;5092445;28;20459;-70
2021/07/29 03:23:22;;;;;;;5.00;4.70;;;18.70;99.90;;;;;;5091270;28;20165;-69
2021/07/29 03:25:52;;;;;;;6.17;5.77;;;18.70;99.90;;;;;;5092366;28;20172;-69
2021/07/29 03:28:18;;;;;;;5.17;4.43;;;18.70;99.90;;;;;;5091394;28;20417;-70
2021/07/29 03:30:44;;;;;;;5.73;5.20;;;18.70;99.90;;;;;;5090888;28;20462;-69
2021/07/29 03:33:10;;;;;;;5.50;4.70;;;18.60;99.90;;;;;;5090293;28;20454;-70
2021/07/29 03:35:37;;;;;;;5.30;4.90;;;18.60;99.90;;;;;;5092225;28;20492;-70
2021/07/29 03:38:03;;;;;;;4.73;4.30;;;18.60;99.90;;;;;;5091984;28;20482;-69
2021/07/29 03:40:29;;;;;;;5.40;5.10;;;18.40;99.90;;;;;;5091320;28;20950;-69
2021/07/29 03:42:56;;;;;;;5.83;5.33;;;18.40;99.90;;;;;;5091848;28;20414;-69
2021/07/29 03:45:22;;;;;;;5.07;4.50;;;18.40;99.90;;;;;;5090233;28;20314;-70
2021/07/29 03:47:48;;;;;;;5.60;4.60;;;18.40;99.90;;;;;;5091926;28;20422;-70
2021/07/29 03:50:14;;;;;;;5.23;4.93;;;18.40;99.90;;;;;;5091331;28;20943;-70
2021/07/29 03:52:39;;;;;;;5.30;5.00;;;18.40;99.90;;;;;;5091628;28;20194;-70
2021/07/29 03:55:06;;;;;;;6.33;6.03;;;18.40;99.90;;;;;;5092117;28;20176;-70
2021/07/29 03:57:32;;;;;;;6.47;5.93;;;18.50;99.90;;;;;;5091863;28;20175;-71
2021/07/29 03:59:58;;;;;;;7.20;6.67;;;18.50;99.90;;;;;;5090472;28;20925;-69
2021/07/29 04:02:23;;;;;;;5.90;5.30;;;18.50;99.90;;;;;;5091192;28;20207;-69
2021/07/29 04:04:49;;;;;;;6.00;5.50;;;18.60;99.90;;;;;;5091812;28;20179;-69
2021/07/29 04:07:15;;;;;;;5.80;5.40;;;18.60;99.90;;;;;;5091279;28;20173;-70
2021/07/29 04:09:40;;;;;;;5.20;4.80;;;18.60;99.90;;;;;;5090004;28;20211;-70
2021/07/29 04:12:06;;;;;;;5.10;4.80;;;18.60;99.90;;;;;;5090879;28;20176;-69
2021/07/29 04:14:32;;;;;;;7.60;7.20;;;18.50;99.90;;;;;;5091084;28;20183;-71
2021/07/29 04:16:58;;;;;;;5.27;4.80;;;18.50;99.90;;;;;;5091892;28;20470;-70
2021/07/29 04:19:24;;;;;;;7.20;6.00;;;18.60;99.90;;;;;;5090164;28;20442;-70
2021/07/29 04:21:50;;;;;;;5.80;5.00;;;18.50;99.90;;;;;;5091341;28;20180;-70
2021/07/29 04:24:18;;;;;;;6.67;5.50;;;18.40;99.90;;;;;;5091115;28;20176;-70
2021/07/29 04:26:44;;;;;;;5.33;4.93;;;18.30;99.90;;;;;;5091388;28;20651;-69
2021/07/29 04:29:10;;;;;;;5.80;5.37;;;18.30;99.90;;;;;;5091322;28;20442;-74
2021/07/29 04:31:36;;;;;;;5.40;5.00;;;18.40;99.90;;;;;;5091480;28;20504;-70
2021/07/29 04:34:01;;;;;;;9.80;8.47;;;18.40;99.90;;;;;;5091519;28;20200;-69
2021/07/29 04:36:27;;;;;;;5.40;4.90;;;18.40;99.90;;;;;;5089561;28;20173;-70
2021/07/29 04:38:53;;;;;;;7.10;6.70;;;18.40;99.90;;;;;;5091414;28;20588;-69
2021/07/29 04:41:19;;;;;;;5.37;4.90;;;18.40;99.90;;;;;;5090690;28;20184;-70
2021/07/29 04:43:44;;;;;;;5.10;4.80;;;18.40;99.90;;;;;;5094280;28;20180;-70
2021/07/29 04:46:10;;;;;;;6.03;5.60;;;18.30;99.90;;;;;;5093289;28;20184;-74
2021/07/29 04:48:36;;;;;;;8.87;8.37;;;18.30;99.90;;;;;;5095776;28;20191;-70
2021/07/29 04:51:06;;;;;;;8.37;7.73;;;18.30;99.90;;;;;;5097720;28;20696;-70
2021/07/29 04:53:32;;;;;;;6.13;5.53;;;18.30;99.90;;;;;;5094351;28;20175;-70
2021/07/29 04:55:59;;;;;;;7.77;7.27;;;18.20;99.90;;;;;;5095200;28;20467;-70
2021/07/29 04:58:25;;;;;;;7.00;5.73;;;18.20;99.90;;;;;;5093852;28;20462;-71
2021/07/29 05:00:50;;;;;;;6.30;5.80;;;18.20;99.90;;;;;;5107751;28;20461;-70
2021/07/29 05:03:16;;;;;;;6.07;5.60;;;18.30;99.90;;;;;;5113303;28;20266;-70
2021/07/29 05:05:41;;;;;;;9.30;8.40;;;18.30;99.90;;;;;;5102288;28;20180;-70
2021/07/29 05:08:07;;;;;;;6.40;6.00;;;18.40;99.90;;;;;;5094779;28;20181;-70
2021/07/29 05:10:33;;;;;;;5.30;4.90;;;18.40;99.90;;;;;;5093529;28;20206;-70
2021/07/29 05:12:58;;;;;;;8.00;7.30;;;18.40;99.90;;;;;;5094530;28;20176;-70
2021/07/29 05:15:24;;;;;;;5.80;5.30;;;18.50;99.90;;;;;;5093570;28;20184;-72
2021/07/29 05:17:56;;;;;;;6.10;5.60;;;18.70;99.90;;;;;;5093116;28;20263;-72
2021/07/29 05:20:22;;;;;;;5.43;5.03;;;18.80;99.90;;;;;;5082699;28;20172;-72
2021/07/29 05:22:48;;;;;;;6.53;5.40;;;19.00;99.90;;;;;;5094803;28;20406;-72
2021/07/29 05:25:22;;;;;;;5.67;5.23;;;19.10;99.90;;;;;;5093901;28;20467;-76
2021/07/29 05:27:51;;;;;;;7.50;7.00;;;19.30;99.90;;;;;;5094149;28;20172;-72
2021/07/29 05:30:18;;;;;;;5.87;5.30;;;19.40;99.90;;;;;;5091999;28;20457;-73
2021/07/29 05:32:45;;;;;;;7.47;6.87;;;19.50;99.90;;;;;;5093487;28;20426;-72
2021/07/29 05:35:11;;;;;;;5.43;5.00;;;19.60;99.90;;;;;;5094386;28;20418;-77
2021/07/29 05:37:38;;;;;;;5.40;5.10;;;19.60;99.90;;;;;;5093690;28;20407;-72
2021/07/29 05:40:09;;;;;;;4.83;4.43;;;19.60;99.90;;;;;;5093903;28;20449;-72
2021/07/29 05:42:36;;;;;;;4.60;4.30;;;19.60;99.90;;;;;;5088517;28;20433;-73
2021/07/29 05:45:03;;;;;;;6.00;5.60;;;19.60;99.90;;;;;;5126254;27;20461;-73
2021/07/29 05:47:30;;;;;;;6.30;5.90;;;19.60;99.90;;;;;;5093557;28;20188;-72
2021/07/29 05:49:55;;;;;;;10.10;6.83;;;19.80;99.90;;;;;;5094604;28;20507;-72
2021/07/29 05:52:21;;;;;;;5.87;5.47;;;19.80;99.90;;;;;;5093964;28;20444;-72
2021/07/29 05:54:47;;;;;;;5.00;4.63;;;19.80;99.90;;;;;;5094816;28;20184;-73
2021/07/29 05:57:12;;;;;;;4.70;4.40;;;19.70;99.80;;;;;;5094094;28;20172;-73
2021/07/29 05:59:38;;;;;;;6.00;4.07;;;19.80;99.90;;;;;;5094432;28;20184;-72
2021/07/29 06:02:04;;;;;;;4.63;4.03;;;19.70;99.80;;;;;;5093890;28;20229;-72
2021/07/29 06:04:30;;;;;;;3.80;3.50;;;19.80;99.90;;;;;;5093230;28;20207;-72
2021/07/29 06:06:56;;;;;;;5.87;3.93;;;19.80;99.80;;;;;;5094168;28;20438;-72
2021/07/29 06:09:21;;;;;;;3.97;3.53;;;19.90;99.30;;;;;;5097753;28;20238;-72
2021/07/29 06:11:47;;;;;;;5.77;3.80;;;20.00;99.50;;;;;;5093892;28;20536;-72
2021/07/29 06:14:13;;;;;;;4.77;4.50;;;20.00;99.80;;;;;;5093586;28;20192;-72
2021/07/29 06:16:38;;;;;;;5.10;4.20;;;19.90;98.20;;;;;;5093940;28;20176;-72
2021/07/29 06:21:31;;;;;;;4.03;3.73;;;19.90;98.60;;;;;;5092463;28;20187;-72
2021/07/29 06:23:57;;;;;;;3.97;3.43;;;19.80;98.30;;;;;;5093385;28;20176;-72
2021/07/29 06:26:23;;;;;;;8.83;7.93;;;19.80;99.90;;;;;;5092774;28;20410;-72
2021/07/29 06:28:48;;;;;;;5.63;4.43;;;19.80;99.90;;;;;;5091920;28;20448;-72
2021/07/29 06:31:14;;;;;;;4.20;3.87;;;19.90;99.60;;;;;;5092379;28;20184;-77
2021/07/29 06:33:40;;;;;;;4.17;3.87;;;20.00;99.10;;;;;;5093061;28;20689;-72
2021/07/29 06:36:06;;;;;;;4.30;4.00;;;20.00;99.00;;;;;;5093095;28;20172;-72
2021/07/29 06:38:32;;;;;;;4.40;4.10;;;20.00;99.00;;;;;;5091880;28;20169;-72
2021/07/29 06:40:57;;;;;;;4.83;4.53;;;20.00;98.00;;;;;;5091763;28;20176;-73
2021/07/29 06:43:23;;;;;;;4.83;4.33;;;19.90;97.60;;;;;;5091542;28;20498;-72
2021/07/29 06:45:49;;;;;;;4.67;4.27;;;19.90;98.70;;;;;;5093136;28;20317;-72
2021/07/29 06:48:16;;;;;;;4.43;3.90;;;19.90;98.20;;;;;;5091696;28;20507;-77
2021/07/29 06:50:43;;;;;;;4.57;4.17;;;19.90;98.50;;;;;;5092711;28;20207;-72
2021/07/29 06:53:09;;;;;;;4.73;4.27;;;20.00;98.70;;;;;;5092490;28;20443;-72
2021/07/29 06:55:35;;;;;;;3.43;3.23;;;20.10;98.10;;;;;;5091446;28;20420;-72
2021/07/29 06:58:01;;;;;;;4.50;4.20;;;20.20;98.80;;;;;;5092322;28;20180;-72
2021/07/29 07:00:27;;;;;;;5.43;4.27;;;20.40;98.70;;;;;;5090985;28;20544;-72
2021/07/29 07:02:52;;;;;;;6.23;5.73;;;20.40;96.80;;;;;;5090798;28;20184;-72
2021/07/29 07:05:18;;;;;;;6.20;4.93;;;20.40;96.50;;;;;;5099029;28;20180;-76
2021/07/29 07:07:44;;;;;;;5.23;4.70;;;20.40;97.40;;;;;;5111240;28;20676;-72
2021/07/29 07:10:09;;;;;;;6.50;4.07;;;20.40;97.10;;;;;;5092607;28;20255;-72
2021/07/29 07:12:36;;;;;;;7.33;3.67;;;20.40;96.60;;;;;;5092430;28;20267;-72
2021/07/29 07:15:03;;;;;;;5.03;4.47;;;20.40;95.60;;;;;;5092777;28;20394;-72
2021/07/29 07:17:29;;;;;;;4.67;4.37;;;20.30;94.80;;;;;;5092142;28;20419;-72
2021/07/29 07:19:59;;;;;;;3.30;3.00;;;20.30;96.20;;;;;;5092744;28;20471;-72
2021/07/29 07:22:25;;;;;;;3.57;3.27;;;20.30;95.00;;;;;;5092143;28;20229;-72
2021/07/29 07:24:51;;;;;;;6.43;6.00;;;20.40;95.80;;;;;;5097010;28;20797;-72
2021/07/29 07:27:17;;;;;;;4.70;4.50;;;20.40;95.40;;;;;;5112568;28;20408;-72
2021/07/29 07:29:42;;;;;;;4.20;3.90;;;20.50;95.10;;;;;;5113561;28;20203;-73
2021/07/29 07:32:08;;;;;;;6.30;5.70;;;20.50;94.30;;;;;;5092743;28;20624;-72
2021/07/29 07:34:34;;;;;;;4.63;4.33;;;20.60;96.80;;;;;;5092998;28;20172;-72
2021/07/29 07:37:00;;;;;;;3.80;3.40;;;20.80;95.20;;;;;;5103377;28;20256;-72
2021/07/29 07:39:25;;;;;;;6.27;3.80;;;20.90;95.30;;;;;;5112447;28;20187;-72
2021/07/29 07:41:52;;;;;;;5.00;4.60;;;21.10;95.50;;;;;;5105363;28;20433;-72
2021/07/29 07:44:18;;;;;;;4.47;4.07;;;21.10;95.10;;;;;;5098702;28;20302;-72
2021/07/29 07:46:44;;;;;;;4.40;4.00;;;21.20;93.70;;;;;;5110970;28;20456;-72
2021/07/29 07:49:12;;;;;;;4.33;3.80;;;21.30;93.10;;;;;;5097021;28;20481;-72
2021/07/29 07:51:37;;;;;;;9.10;3.80;;;21.40;92.60;;;;;;5098136;28;20985;-72
2021/07/29 07:54:03;;;;;;;3.93;3.33;;;21.40;92.40;;;;;;5092334;28;20422;-71
2021/07/29 07:56:29;;;;;;;3.60;3.30;;;21.30;92.30;;;;;;5097409;28;20168;-69
2021/07/29 07:58:55;;;;;;;4.83;4.00;;;21.20;91.80;;;;;;5112891;28;20231;-71
2021/07/29 08:01:21;;;;;;;3.40;3.10;;;21.00;91.60;;;;;;5110868;28;20228;-72
2021/07/29 08:03:47;;;;;;;3.90;3.63;;;21.10;92.00;;;;;;5092371;28;20411;-72
2021/07/29 08:06:13;;;;;;;3.67;3.27;;;21.10;91.80;;;;;;5092335;28;20180;-73
2021/07/29 08:08:39;;;;;;;3.53;3.23;;;21.10;91.30;;;;;;5091629;28;20477;-72
2021/07/29 08:11:05;;;;;;;3.60;3.27;;;21.10;91.60;;;;;;5092075;28;20462;-71
2021/07/29 08:13:31;;;;;;;3.57;3.27;;;21.10;91.00;;;;;;5091808;28;20734;-73
2021/07/29 08:15:57;;;;;;;4.43;3.97;;;20.90;91.20;;;;;;5092233;28;20176;-72
2021/07/29 08:18:23;;;;;;;6.20;3.80;;;20.80;91.60;;;;;;5093817;28;20176;-71
2021/07/29 08:20:48;;;;;;;4.47;4.17;;;20.70;90.90;;;;;;5096061;28;20441;-71
2021/07/29 08:23:14;;;;;;;5.10;4.70;;;20.50;91.00;;;;;;5096405;28;20215;-69
2021/07/29 08:25:40;;;;;;;4.30;3.47;;;20.40;91.20;;;;;;5095505;28;20218;-70
2021/07/29 08:28:06;;;;;;;3.47;3.37;;;20.30;92.20;;;;;;5095551;28;20176;-70
2021/07/29 08:30:32;;;;;;;4.90;4.37;;;20.20;92.20;;;;;;5094913;28;20208;-70
2021/07/29 08:32:58;;;;;;;4.67;4.23;;;20.30;92.40;;;;;;5096176;28;20727;-71
2021/07/29 08:35:24;;;;;;;5.70;5.30;;;20.40;92.60;;;;;;5095421;28;20404;-71
2021/07/29 08:37:50;;;;;;;4.27;3.97;;;20.60;92.60;;;;;;5095948;28;20173;-71
2021/07/29 08:40:20;;;;;;;4.73;4.30;;;20.70;92.40;;;;;;5095936;28;20399;-71
2021/07/29 08:42:47;;;;;;;4.20;3.90;;;20.90;92.80;;;;;;5095543;28;20432;-71
2021/07/29 08:45:13;;;;;;;3.70;3.50;;;21.10;91.30;;;;;;5095405;28;20461;-71
2021/07/29 08:47:42;;;;;;;5.07;3.70;;;21.20;91.90;;;;;;5094993;28;20842;-71
2021/07/29 08:50:08;;;;;;;6.00;3.53;;;21.40;91.40;;;;;;5095487;28;20454;-71
2021/07/29 08:52:34;;;;;;;4.00;3.40;;;21.40;90.80;;;;;;5095114;28;20419;-71
2021/07/29 08:55:00;;;;;;;4.07;3.77;;;21.50;90.10;;;;;;5095479;28;20417;-71
2021/07/29 08:57:28;;;;;;;7.20;5.10;;;21.50;90.30;;;;;;5095129;28;20168;-71
2021/07/29 08:59:55;;;;;;;4.30;4.00;;;21.60;90.20;;;;;;5095504;28;20498;-71
2021/07/29 09:02:28;;;;;;;7.43;6.73;;;21.60;89.80;;;;;;5094944;28;20767;-75
2021/07/29 09:05:09;;;;;;;3.70;3.40;;;21.70;89.60;;;;;;5095454;28;20402;-71
2021/07/29 09:07:35;;;;;;;4.20;3.80;;;21.70;90.10;;;;;;5094753;28;20508;-71
2021/07/29 09:10:05;;;;;;;5.50;3.27;;;21.70;87.90;;;;;;5095339;28;20505;-71
2021/07/29 09:12:31;;;;;;;6.13;3.63;;;21.90;89.60;;;;;;5094694;28;20418;-71
2021/07/29 09:14:56;;;;;;;6.93;5.93;;;22.10;87.70;;;;;;5094905;28;20412;-71
2021/07/29 09:17:23;;;;;;;5.00;3.20;;;22.30;89.40;;;;;;5094717;28;20172;-72
2021/07/29 09:19:54;;;;;;;6.20;5.70;;;22.40;85.00;;;;;;5095007;28;20188;-71
2021/07/29 09:22:21;;;;;;;3.23;3.03;;;22.50;85.70;;;;;;5095411;28;20406;-71
2021/07/29 09:25:07;;;;;;;3.30;2.90;;;22.60;85.50;;;;;;5096098;28;20417;-72
2021/07/29 09:27:38;;;;;;;3.47;2.90;;;22.70;84.40;;;;;;5102208;28;20405;-72
2021/07/29 09:30:18;;;;;;;3.63;3.33;;;22.70;83.30;;;;;;5101445;28;20847;-72
2021/07/29 09:32:56;;;;;;;6.10;5.80;;;22.70;84.10;;;;;;5102619;28;20411;-71
2021/07/29 09:35:42;;;;;;;5.53;5.00;;;22.70;84.40;;;;;;5101760;28;20918;-73
2021/07/29 09:38:19;;;;;;;5.53;3.47;;;22.80;83.90;;;;;;5096731;28;20464;-71
2021/07/29 09:41:06;;;;;;;4.60;4.30;;;22.80;84.80;;;;;;5094364;28;20426;-71
2021/07/29 09:43:36;;;;;;;4.97;3.23;;;22.90;85.90;;;;;;5094273;28;20407;-71
2021/07/29 09:46:04;;;;;;;4.73;4.33;;;22.90;83.00;;;;;;5094958;28;21053;-71
2021/07/29 09:48:30;;;;;;;5.13;3.33;;;22.90;83.50;;;;;;5093955;28;20422;-71
2021/07/29 09:51:00;;;;;;;4.90;2.50;;;22.90;84.70;;;;;;5094340;28;20434;-71
2021/07/29 09:53:33;;;;;;;4.17;3.77;;;22.90;82.40;;;;;;5093936;28;20434;-71
2021/07/29 09:56:00;;;;;;;3.10;2.80;;;23.10;82.00;;;;;;5094455;28;20406;-71
2021/07/29 09:58:26;;;;;;;3.40;3.10;;;23.00;81.30;;;;;;5093732;28;20429;-71
2021/07/29 10:00:51;;;;;;;3.67;3.40;;;23.10;80.90;;;;;;5094175;28;20493;-71
2021/07/29 10:03:22;;;;;;;4.50;3.30;;;23.10;78.10;;;;;;5093535;28;20186;-71
2021/07/29 10:05:53;;;;;;;5.90;5.60;;;23.00;75.90;;;;;;5102797;28;20527;-71
2021/07/29 10:08:40;;;;;;;3.53;3.30;;;23.00;76.50;;;;;;5098469;28;20763;-71
2021/07/29 10:11:14;;;;;;;5.13;4.73;;;23.10;78.90;;;;;;5102474;28;20441;-71
2021/07/29 10:13:41;;;;;;;4.87;4.53;;;23.20;77.40;;;;;;5093071;28;20780;-71
2021/07/29 10:16:09;;;;;;;5.77;2.80;;;23.20;78.70;;;;;;5093967;28;20414;-71
2021/07/29 10:18:55;;;;;;;3.47;3.17;;;23.30;77.70;;;;;;5099503;28;20430;-71
2021/07/29 10:21:22;;;;;;;7.57;3.40;;;23.50;74.90;;;;;;5087423;28;20818;-71
2021/07/29 10:23:52;;;;;;;3.70;3.40;;;23.50;75.40;;;;;;5103835;28;20414;-73
2021/07/29 10:26:18;;;;;;;3.47;3.27;;;23.40;75.50;;;;;;5103630;28;20509;-72
2021/07/29 10:28:44;;;;;;;5.63;3.60;;;23.40;75.90;;;;;;5100537;28;20415;-71
2021/07/29 10:31:12;;;;;;;3.47;3.23;;;23.50;76.60;;;;;;5110772;28;20521;-70
2021/07/29 10:33:39;;;;;;;5.20;4.93;;;23.60;78.20;;;;;;5112099;28;20224;-70
2021/07/29 10:36:06;;;;;;;2.97;2.77;;;23.50;76.30;;;;;;5114012;28;20409;-71
2021/07/29 10:38:46;;;;;;;5.40;5.10;;;23.60;76.60;;;;;;5113066;28;20406;-71
2021/07/29 10:41:21;;;;;;;3.30;2.70;;;23.70;73.60;;;;;;5111565;28;20413;-71
2021/07/29 10:43:46;;;;;;;4.20;3.80;;;23.50;70.30;;;;;;5102947;28;20414;-72
2021/07/29 10:46:12;;;;;;;3.53;3.40;;;23.30;70.90;;;;;;5093175;28;20398;-71
2021/07/29 10:48:44;;;;;;;3.57;3.30;;;23.20;73.50;;;;;;5092613;28;20763;-72
2021/07/29 10:51:13;;;;;;;3.43;3.13;;;23.20;73.70;;;;;;5093250;28;20212;-72
2021/07/29 10:53:40;;;;;;;4.73;4.27;;;23.30;74.00;;;;;;5092625;28;20547;-71
2021/07/29 10:56:14;;;;;;;3.77;3.47;;;23.50;75.40;;;;;;5093333;28;20409;-71
2021/07/29 10:58:51;;;;;;;6.40;5.87;;;23.60;72.50;;;;;;5092657;28;20414;-71
2021/07/29 11:01:17;;;;;;;3.40;3.20;;;23.80;74.90;;;;;;5093312;28;20390;-71
2021/07/29 11:03:57;;;;;;;3.60;3.30;;;23.90;69.50;;;;;;5092484;28;20414;-71
2021/07/29 11:06:23;;;;;;;6.07;5.43;;;23.90;68.70;;;;;;5093204;28;20447;-71
2021/07/29 11:08:50;;;;;;;5.63;4.53;;;24.00;72.50;;;;;;5092447;28;20402;-72
2021/07/29 11:11:16;;;;;;;4.20;3.93;;;24.10;71.80;;;;;;5093096;28;20408;-71
2021/07/29 11:13:50;;;;;;;3.30;3.00;;;24.30;72.60;;;;;;5092173;28;20452;-72
2021/07/29 11:16:16;;;;;;;5.33;3.03;;;24.30;71.50;;;;;;5092777;28;20778;-71
2021/07/29 11:18:58;;;;;;;4.40;4.03;;;24.40;70.30;;;;;;5092173;28;20414;-71
2021/07/29 11:21:24;;;;;;;4.13;3.67;;;24.30;72.70;;;;;;5092758;28;20406;-71
2021/07/29 11:23:49;;;;;;;3.73;3.50;;;24.10;71.30;;;;;;5092070;28;20882;-72
2021/07/29 11:26:15;;;;;;;4.63;4.33;;;24.00;70.90;;;;;;5092902;28;20221;-71
2021/07/29 11:28:41;;;;;;;4.23;3.83;;;24.10;72.50;;;;;;5092235;28;20175;-71
2021/07/29 11:31:07;;;;;;;5.23;4.30;;;24.10;71.90;;;;;;5092463;28;20199;-71
2021/07/29 11:33:32;;;;;;;3.83;3.63;;;24.10;72.10;;;;;;5092170;28;20176;-72
2021/07/29 11:36:09;;;;;;;8.30;4.00;;;24.10;73.10;;;;;;5092706;28;20448;-71
2021/07/29 11:38:35;;;;;;;4.73;4.10;;;24.10;71.90;;;;;;5092231;28;20214;-72
2021/07/29 11:41:01;;;;;;;5.00;4.60;;;24.10;73.00;;;;;;5092674;28;20418;-71
2021/07/29 11:43:33;;;;;;;4.43;4.23;;;24.30;73.50;;;;;;5091698;28;20438;-71
2021/07/29 11:46:10;;;;;;;4.80;4.17;;;24.30;70.10;;;;;;5092811;28;20443;-71
2021/07/29 11:48:36;;;;;;;3.97;3.57;;;24.30;70.30;;;;;;5091759;28;20878;-72
2021/07/29 11:51:15;;;;;;;6.17;3.83;;;24.30;69.90;;;;;;5092910;28;20541;-72
2021/07/29 11:53:42;;;;;;;4.43;4.00;;;24.30;69.80;;;;;;5098633;28;20398;-72
2021/07/29 11:56:10;;;;;;;4.30;4.00;;;24.20;71.10;;;;;;5099243;28;20450;-71
2021/07/29 11:58:37;;;;;;;4.47;4.07;;;24.30;72.40;;;;;;5099013;28;20403;-71
2021/07/29 12:01:13;;;;;;;4.17;3.87;;;24.30;74.20;;;;;;5098156;28;20548;-71
2021/07/29 12:03:47;;;;;;;4.27;3.60;;;24.40;72.00;;;;;;5098745;28;20492;-78
2021/07/29 12:06:15;;;;;;;3.90;3.50;;;24.50;69.80;;;;;;5099220;28;20434;-71
2021/07/29 12:08:42;;;;;;;6.27;5.70;;;24.60;70.20;;;;;;5098316;28;20917;-75
2021/07/29 12:11:16;;;;;;;3.70;3.40;;;24.50;69.70;;;;;;5098443;28;20445;-75
2021/07/29 12:13:43;;;;;;;4.20;3.90;;;24.60;68.80;;;;;;5098135;28;20434;-72
2021/07/29 12:16:09;;;;;;;5.27;4.70;;;24.60;70.40;;;;;;5098945;28;20408;-72
2021/07/29 12:18:35;;;;;;;5.53;3.80;;;24.80;70.20;;;;;;5098748;28;20782;-72
2021/07/29 12:21:01;;;;;;;6.60;6.17;;;24.80;68.90;;;;;;5098410;28;20758;-71
2021/07/29 12:23:28;;;;;;;4.40;3.77;;;24.90;70.30;;;;;;5098860;28;20448;-71
2021/07/29 12:25:56;;;;;;;7.20;6.50;;;24.90;68.00;;;;;;5098154;28;20412;-71
2021/07/29 12:28:43;;;;;;;7.00;6.40;;;24.90;66.80;;;;;;5098922;28;20464;-71
2021/07/29 12:31:19;;;;;;;5.40;5.00;;;24.90;67.90;;;;;;5098796;28;20523;-71
2021/07/29 12:33:58;;;;;;;3.73;3.40;;;25.00;67.40;;;;;;5098128;28;20414;-71
2021/07/29 12:36:44;;;;;;;5.03;3.37;;;25.00;66.00;;;;;;5098870;28;20408;-72
2021/07/29 12:39:16;;;;;;;5.97;5.53;;;25.00;67.90;;;;;;5097527;28;20437;-71
2021/07/29 12:41:44;;;;;;;6.90;6.50;;;25.10;69.00;;;;;;5098112;28;20393;-72
2021/07/29 12:44:10;;;;;;;5.50;5.20;;;25.20;71.30;;;;;;5098268;28;20463;-71
2021/07/29 12:46:37;;;;;;;5.77;5.27;;;25.30;68.80;;;;;;5098750;28;20391;-71
2021/07/29 12:49:03;;;;;;;5.63;3.40;;;25.40;68.00;;;;;;5097781;28;20961;-71
2021/07/29 12:51:45;;;;;;;4.20;3.90;;;25.40;64.40;;;;;;5098634;28;20489;-71
2021/07/29 12:54:13;;;;;;;5.03;3.40;;;25.30;65.60;;;;;;5098730;28;20164;-71